Scottsbluff, NE

2:15 AM MST on December 05, 2016 (GMT -0700)
KNEB Radio | | Change Station

Elev 3878 ft 41.86 °N, 103.64 °W | Updated 3 minutes ago

Clear
Clear
40.9 °F
Feels Like 41 °F
N
0.0
Wind Variable Wind from NE
Gusts 3.0 mph

Today
High -- | Low -- °F
--% Chance of Precip.
Yesterday
High -- | Low -- °F
Precip. -- in
Pressure 29.57 in
Visibility 10.0 miles
Clouds Clear
Windchill 41 °F
Dew Point 22 °F
Humidity 48%
Rainfall 0.00 in
Snow Depth Not available.
7:07 AM 4:23 PM
Waxing Crescent, 30% visible
METAR KBFF 050853Z AUTO 01003KT 10SM CLR 06/M07 A2959 RMK AO2 SLP012 T00611072 56013
Pressure 29.57 in
Visibility 10.0 miles
Clouds Clear
Windchill 41 °F
Dew Point 22 °F
Humidity 48%
Rainfall 0.00 in
Snow Depth Not available.
7:07 AM 4:23 PM
Waxing Crescent, 30% visible
METAR KBFF 050853Z AUTO 01003KT 10SM CLR 06/M07 A2959 RMK AO2 SLP012 T00611072 56013

10-Day Weather Forecast

Almanac

Astronomy

Dec. 05, 2016 Rise Set
Actual Time
Civil Twilight
Nautical Twilight
Astronomical Twilight
Moon
Length of Visible Light
Length of Day
Tomorrow will be .
, % of the Moon is Illuminated

Today's Extremes

State Highs State Lows

Community

WunderPhotos

Upload Photos

1,955,775 photos uploaded!

WunderBlog® & News

Nearby

Air Quality

  Air Quality AQ Index Pollutant
Not available.

Snow Depth

Station Depth Elevation

Earthquake Activity

City Distance Mag. Time & Date
Minimum magnitude displayed is 2.5.

Coastal Water Temperatures

Place Temperature

Stations

Nearby Weather Stations

Station Location Temp. Windchill Dew Point Humidity Wind Precip. Elev Updated Type
                   

Watches & Warnings

There are currently no watches in effect.